sensor_id;sensor_type;location;lat;lon;timestamp;P1;durP1;ratioP1;P2;durP2;ratioP2
16792;SDS011;8513;42.662;23.350;2023-03-31T00:01:23;16.23;;;8.70;;
16792;SDS011;8513;42.662;23.350;2023-03-31T00:03:48;11.43;;;7.45;;
16792;SDS011;8513;42.662;23.350;2023-03-31T00:06:14;12.15;;;8.10;;
16792;SDS011;8513;42.662;23.350;2023-03-31T00:08:42;14.80;;;8.52;;
16792;SDS011;8513;42.662;23.350;2023-03-31T00:11:08;12.90;;;7.50;;
16792;SDS011;8513;42.662;23.350;2023-03-31T00:13:34;13.38;;;7.45;;
16792;SDS011;8513;42.662;23.350;2023-03-31T00:16:04;13.88;;;7.65;;
16792;SDS011;8513;42.662;23.350;2023-03-31T00:18:32;13.27;;;7.85;;
16792;SDS011;8513;42.662;23.350;2023-03-31T00:21:08;12.00;;;8.00;;
16792;SDS011;8513;42.662;23.350;2023-03-31T00:23:58;13.00;;;7.80;;
16792;SDS011;8513;42.662;23.350;2023-03-31T00:26:28;12.25;;;7.40;;
16792;SDS011;8513;42.662;23.350;2023-03-31T00:28:54;9.80;;;7.20;;
16792;SDS011;8513;42.662;23.350;2023-03-31T00:31:20;12.55;;;7.75;;
16792;SDS011;8513;42.662;23.350;2023-03-31T00:33:47;11.25;;;8.18;;
16792;SDS011;8513;42.662;23.350;2023-03-31T00:36:12;11.60;;;7.18;;
16792;SDS011;8513;42.662;23.350;2023-03-31T00:38:45;12.30;;;7.80;;
16792;SDS011;8513;42.662;23.350;2023-03-31T00:41:15;12.10;;;7.78;;
16792;SDS011;8513;42.662;23.350;2023-03-31T00:43:59;12.23;;;7.82;;
16792;SDS011;8513;42.662;23.350;2023-03-31T00:49:44;14.85;;;8.15;;
16792;SDS011;8513;42.662;23.350;2023-03-31T00:54:40;13.07;;;8.07;;
16792;SDS011;8513;42.662;23.350;2023-03-31T00:57:08;15.98;;;9.35;;
16792;SDS011;8513;42.662;23.350;2023-03-31T00:59:36;13.85;;;8.55;;
16792;SDS011;8513;42.662;23.350;2023-03-31T01:02:04;12.93;;;8.75;;
16792;SDS011;8513;42.662;23.350;2023-03-31T01:04:31;31.27;;;11.90;;
16792;SDS011;8513;42.662;23.350;2023-03-31T01:07:08;18.42;;;9.73;;
16792;SDS011;8513;42.662;23.350;2023-03-31T01:09:40;21.65;;;10.35;;
16792;SDS011;8513;42.662;23.350;2023-03-31T01:12:11;23.67;;;10.85;;
16792;SDS011;8513;42.662;23.350;2023-03-31T01:14:39;21.45;;;10.70;;
16792;SDS011;8513;42.662;23.350;2023-03-31T01:17:05;24.45;;;11.32;;
16792;SDS011;8513;42.662;23.350;2023-03-31T01:44:42;24.57;;;12.83;;
16792;SDS011;8513;42.662;23.350;2023-03-31T01:47:36;29.40;;;13.48;;
16792;SDS011;8513;42.662;23.350;2023-03-31T01:50:17;26.33;;;13.30;;
16792;SDS011;8513;42.662;23.350;2023-03-31T01:52:54;24.52;;;11.95;;
16792;SDS011;8513;42.662;23.350;2023-03-31T01:55:42;20.50;;;12.05;;
16792;SDS011;8513;42.662;23.350;2023-03-31T01:58:25;27.42;;;13.38;;
16792;SDS011;8513;42.662;23.350;2023-03-31T02:01:19;19.42;;;10.82;;
16792;SDS011;8513;42.662;23.350;2023-03-31T02:04:00;21.10;;;10.18;;
16792;SDS011;8513;42.662;23.350;2023-03-31T02:06:36;21.07;;;11.80;;
16792;SDS011;8513;42.662;23.350;2023-03-31T02:09:08;24.25;;;11.75;;
16792;SDS011;8513;42.662;23.350;2023-03-31T02:11:37;21.83;;;12.05;;
16792;SDS011;8513;42.662;23.350;2023-03-31T02:14:07;21.00;;;11.43;;
16792;SDS011;8513;42.662;23.350;2023-03-31T02:16:36;19.92;;;10.68;;
16792;SDS011;8513;42.662;23.350;2023-03-31T02:19:05;22.80;;;10.45;;
16792;SDS011;8513;42.662;23.350;2023-03-31T02:21:35;21.17;;;10.75;;
16792;SDS011;8513;42.662;23.350;2023-03-31T02:24:06;19.95;;;11.52;;
16792;SDS011;8513;42.662;23.350;2023-03-31T02:26:38;22.25;;;10.18;;
16792;SDS011;8513;42.662;23.350;2023-03-31T02:29:20;18.38;;;10.23;;
16792;SDS011;8513;42.662;23.350;2023-03-31T02:31:47;19.45;;;10.88;;
16792;SDS011;8513;42.662;23.350;2023-03-31T02:34:19;23.88;;;10.48;;
16792;SDS011;8513;42.662;23.350;2023-03-31T02:36:46;18.10;;;9.77;;
16792;SDS011;8513;42.662;23.350;2023-03-31T02:39:20;21.05;;;9.45;;
16792;SDS011;8513;42.662;23.350;2023-03-31T02:41:49;17.00;;;8.73;;
16792;SDS011;8513;42.662;23.350;2023-03-31T02:44:15;17.55;;;8.93;;
16792;SDS011;8513;42.662;23.350;2023-03-31T02:46:41;13.82;;;8.27;;
16792;SDS011;8513;42.662;23.350;2023-03-31T02:49:08;16.42;;;7.30;;
16792;SDS011;8513;42.662;23.350;2023-03-31T02:52:01;10.45;;;5.07;;
16792;SDS011;8513;42.662;23.350;2023-03-31T03:13:29;4.38;;;2.42;;
16792;SDS011;8513;42.662;23.350;2023-03-31T03:16:09;3.45;;;1.95;;
16792;SDS011;8513;42.662;23.350;2023-03-31T03:18:43;3.35;;;2.10;;
16792;SDS011;8513;42.662;23.350;2023-03-31T03:21:21;4.72;;;2.40;;
16792;SDS011;8513;42.662;23.350;2023-03-31T03:23:47;3.88;;;2.47;;
16792;SDS011;8513;42.662;23.350;2023-03-31T03:26:12;3.08;;;2.20;;
16792;SDS011;8513;42.662;23.350;2023-03-31T03:28:37;6.85;;;2.70;;
16792;SDS011;8513;42.662;23.350;2023-03-31T03:31:03;3.47;;;2.50;;
16792;SDS011;8513;42.662;23.350;2023-03-31T03:33:28;5.13;;;2.70;;
16792;SDS011;8513;42.662;23.350;2023-03-31T03:35:54;4.65;;;3.25;;
16792;SDS011;8513;42.662;23.350;2023-03-31T03:38:19;5.30;;;3.20;;
16792;SDS011;8513;42.662;23.350;2023-03-31T03:40:45;6.22;;;3.60;;
16792;SDS011;8513;42.662;23.350;2023-03-31T03:43:10;9.53;;;4.07;;
16792;SDS011;8513;42.662;23.350;2023-03-31T03:45:36;4.80;;;3.70;;
16792;SDS011;8513;42.662;23.350;2023-03-31T03:48:01;8.40;;;4.80;;
16792;SDS011;8513;42.662;23.350;2023-03-31T03:50:27;6.25;;;5.07;;
16792;SDS011;8513;42.662;23.350;2023-03-31T03:52:52;8.45;;;5.70;;
16792;SDS011;8513;42.662;23.350;2023-03-31T03:55:18;8.75;;;5.95;;
16792;SDS011;8513;42.662;23.350;2023-03-31T03:57:43;9.30;;;6.82;;
16792;SDS011;8513;42.662;23.350;2023-03-31T04:00:09;9.68;;;5.97;;
16792;SDS011;8513;42.662;23.350;2023-03-31T04:02:36;7.72;;;5.55;;
16792;SDS011;8513;42.662;23.350;2023-03-31T04:05:02;6.82;;;5.93;;
16792;SDS011;8513;42.662;23.350;2023-03-31T04:07:28;6.65;;;4.85;;
16792;SDS011;8513;42.662;23.350;2023-03-31T04:09:53;7.95;;;4.55;;
16792;SDS011;8513;42.662;23.350;2023-03-31T04:12:18;4.83;;;4.10;;
16792;SDS011;8513;42.662;23.350;2023-03-31T04:14:44;7.30;;;4.78;;
16792;SDS011;8513;42.662;23.350;2023-03-31T04:17:09;7.53;;;4.20;;
16792;SDS011;8513;42.662;23.350;2023-03-31T04:19:40;7.68;;;4.82;;
16792;SDS011;8513;42.662;23.350;2023-03-31T04:22:06;6.03;;;4.77;;
16792;SDS011;8513;42.662;23.350;2023-03-31T04:24:35;7.70;;;5.22;;
16792;SDS011;8513;42.662;23.350;2023-03-31T04:27:03;10.50;;;5.32;;
16792;SDS011;8513;42.662;23.350;2023-03-31T04:29:31;9.77;;;5.10;;
16792;SDS011;8513;42.662;23.350;2023-03-31T04:31:58;7.15;;;4.70;;
16792;SDS011;8513;42.662;23.350;2023-03-31T04:34:24;6.40;;;4.85;;
16792;SDS011;8513;42.662;23.350;2023-03-31T04:36:58;8.15;;;5.35;;
16792;SDS011;8513;42.662;23.350;2023-03-31T04:39:26;8.57;;;5.32;;
16792;SDS011;8513;42.662;23.350;2023-03-31T04:41:54;6.47;;;5.35;;
16792;SDS011;8513;42.662;23.350;2023-03-31T04:44:21;8.18;;;5.25;;
16792;SDS011;8513;42.662;23.350;2023-03-31T04:46:47;6.88;;;5.25;;
16792;SDS011;8513;42.662;23.350;2023-03-31T04:49:12;8.13;;;5.25;;
16792;SDS011;8513;42.662;23.350;2023-03-31T04:51:38;12.75;;;6.68;;
16792;SDS011;8513;42.662;23.350;2023-03-31T04:54:03;8.88;;;5.47;;
16792;SDS011;8513;42.662;23.350;2023-03-31T04:56:29;7.35;;;5.07;;
16792;SDS011;8513;42.662;23.350;2023-03-31T04:58:55;6.82;;;5.32;;
16792;SDS011;8513;42.662;23.350;2023-03-31T05:01:20;8.13;;;4.97;;
16792;SDS011;8513;42.662;23.350;2023-03-31T05:03:46;10.77;;;5.10;;
16792;SDS011;8513;42.662;23.350;2023-03-31T05:06:12;11.47;;;5.87;;
16792;SDS011;8513;42.662;23.350;2023-03-31T05:08:39;8.10;;;5.13;;
16792;SDS011;8513;42.662;23.350;2023-03-31T05:11:04;9.10;;;4.97;;
16792;SDS011;8513;42.662;23.350;2023-03-31T05:13:30;7.20;;;5.32;;
16792;SDS011;8513;42.662;23.350;2023-03-31T05:15:56;7.97;;;4.85;;
16792;SDS011;8513;42.662;23.350;2023-03-31T05:18:22;8.40;;;5.07;;
16792;SDS011;8513;42.662;23.350;2023-03-31T05:20:47;9.00;;;5.50;;
16792;SDS011;8513;42.662;23.350;2023-03-31T05:23:13;8.68;;;5.30;;
16792;SDS011;8513;42.662;23.350;2023-03-31T05:25:39;9.10;;;5.13;;
16792;SDS011;8513;42.662;23.350;2023-03-31T05:28:06;12.20;;;5.95;;
16792;SDS011;8513;42.662;23.350;2023-03-31T05:30:32;7.38;;;4.90;;
16792;SDS011;8513;42.662;23.350;2023-03-31T05:32:58;9.68;;;5.53;;
16792;SDS011;8513;42.662;23.350;2023-03-31T05:35:23;7.40;;;5.47;;
16792;SDS011;8513;42.662;23.350;2023-03-31T05:37:49;9.20;;;5.65;;
16792;SDS011;8513;42.662;23.350;2023-03-31T05:40:15;8.73;;;5.88;;
16792;SDS011;8513;42.662;23.350;2023-03-31T05:42:40;8.02;;;5.40;;
16792;SDS011;8513;42.662;23.350;2023-03-31T05:45:07;10.00;;;6.03;;
16792;SDS011;8513;42.662;23.350;2023-03-31T05:47:33;9.90;;;6.30;;
16792;SDS011;8513;42.662;23.350;2023-03-31T05:49:58;10.90;;;6.10;;
16792;SDS011;8513;42.662;23.350;2023-03-31T05:52:24;9.60;;;6.22;;
16792;SDS011;8513;42.662;23.350;2023-03-31T05:54:50;8.73;;;5.95;;
16792;SDS011;8513;42.662;23.350;2023-03-31T05:57:15;9.75;;;6.45;;
16792;SDS011;8513;42.662;23.350;2023-03-31T05:59:41;7.70;;;6.25;;
16792;SDS011;8513;42.662;23.350;2023-03-31T06:02:07;12.15;;;7.10;;
16792;SDS011;8513;42.662;23.350;2023-03-31T06:04:32;8.15;;;5.82;;
16792;SDS011;8513;42.662;23.350;2023-03-31T06:06:58;9.70;;;6.57;;
16792;SDS011;8513;42.662;23.350;2023-03-31T06:09:24;12.02;;;6.72;;
16792;SDS011;8513;42.662;23.350;2023-03-31T06:11:50;10.77;;;6.75;;
16792;SDS011;8513;42.662;23.350;2023-03-31T06:14:15;8.75;;;6.40;;
16792;SDS011;8513;42.662;23.350;2023-03-31T06:16:41;10.32;;;7.22;;
16792;SDS011;8513;42.662;23.350;2023-03-31T06:19:07;10.57;;;6.90;;
16792;SDS011;8513;42.662;23.350;2023-03-31T06:21:32;9.00;;;6.35;;
16792;SDS011;8513;42.662;23.350;2023-03-31T06:23:58;10.60;;;6.55;;
16792;SDS011;8513;42.662;23.350;2023-03-31T06:26:24;10.93;;;6.40;;
16792;SDS011;8513;42.662;23.350;2023-03-31T06:28:50;10.57;;;6.97;;
16792;SDS011;8513;42.662;23.350;2023-03-31T06:31:17;14.18;;;7.80;;
16792;SDS011;8513;42.662;23.350;2023-03-31T06:33:44;12.40;;;7.28;;
16792;SDS011;8513;42.662;23.350;2023-03-31T06:36:11;13.40;;;7.32;;
16792;SDS011;8513;42.662;23.350;2023-03-31T06:38:38;11.90;;;7.97;;
16792;SDS011;8513;42.662;23.350;2023-03-31T06:41:04;10.27;;;6.75;;
16792;SDS011;8513;42.662;23.350;2023-03-31T06:43:31;12.30;;;6.45;;
16792;SDS011;8513;42.662;23.350;2023-03-31T06:45:57;8.68;;;6.03;;
16792;SDS011;8513;42.662;23.350;2023-03-31T06:48:23;11.82;;;6.60;;
16792;SDS011;8513;42.662;23.350;2023-03-31T06:50:49;13.07;;;6.07;;
16792;SDS011;8513;42.662;23.350;2023-03-31T06:53:15;14.02;;;6.85;;
16792;SDS011;8513;42.662;23.350;2023-03-31T06:55:40;11.90;;;6.85;;
16792;SDS011;8513;42.662;23.350;2023-03-31T06:58:06;9.32;;;6.40;;
16792;SDS011;8513;42.662;23.350;2023-03-31T07:00:31;11.40;;;5.75;;
16792;SDS011;8513;42.662;23.350;2023-03-31T07:02:57;14.30;;;6.07;;
16792;SDS011;8513;42.662;23.350;2023-03-31T07:05:23;9.95;;;5.72;;
16792;SDS011;8513;42.662;23.350;2023-03-31T07:07:55;10.00;;;6.22;;
16792;SDS011;8513;42.662;23.350;2023-03-31T07:10:21;13.77;;;6.20;;
16792;SDS011;8513;42.662;23.350;2023-03-31T07:12:48;11.43;;;6.90;;
16792;SDS011;8513;42.662;23.350;2023-03-31T07:15:14;13.45;;;7.43;;
16792;SDS011;8513;42.662;23.350;2023-03-31T07:17:40;10.68;;;6.57;;
16792;SDS011;8513;42.662;23.350;2023-03-31T07:20:09;10.88;;;7.20;;
16792;SDS011;8513;42.662;23.350;2023-03-31T07:22:38;15.18;;;7.03;;
16792;SDS011;8513;42.662;23.350;2023-03-31T07:25:08;11.70;;;6.43;;
16792;SDS011;8513;42.662;23.350;2023-03-31T07:27:34;11.88;;;6.80;;
16792;SDS011;8513;42.662;23.350;2023-03-31T07:30:01;15.05;;;6.78;;
16792;SDS011;8513;42.662;23.350;2023-03-31T07:32:28;10.48;;;6.32;;
16792;SDS011;8513;42.662;23.350;2023-03-31T07:34:53;12.55;;;6.72;;
16792;SDS011;8513;42.662;23.350;2023-03-31T07:37:19;12.80;;;6.85;;
16792;SDS011;8513;42.662;23.350;2023-03-31T07:39:44;8.50;;;6.03;;
16792;SDS011;8513;42.662;23.350;2023-03-31T07:42:10;10.95;;;6.22;;
16792;SDS011;8513;42.662;23.350;2023-03-31T07:44:35;13.77;;;6.40;;
16792;SDS011;8513;42.662;23.350;2023-03-31T07:47:01;13.55;;;6.78;;
16792;SDS011;8513;42.662;23.350;2023-03-31T07:49:32;6.53;;;4.57;;
16792;SDS011;8513;42.662;23.350;2023-03-31T07:51:58;6.40;;;4.65;;
16792;SDS011;8513;42.662;23.350;2023-03-31T07:54:24;8.63;;;4.30;;
16792;SDS011;8513;42.662;23.350;2023-03-31T07:56:50;6.30;;;5.45;;
16792;SDS011;8513;42.662;23.350;2023-03-31T07:59:15;11.70;;;5.15;;
16792;SDS011;8513;42.662;23.350;2023-03-31T08:01:41;4.90;;;4.00;;
16792;SDS011;8513;42.662;23.350;2023-03-31T08:04:07;8.85;;;4.72;;
16792;SDS011;8513;42.662;23.350;2023-03-31T08:06:33;4.65;;;3.80;;
16792;SDS011;8513;42.662;23.350;2023-03-31T08:08:59;6.82;;;3.88;;
16792;SDS011;8513;42.662;23.350;2023-03-31T08:11:25;4.43;;;3.08;;
16792;SDS011;8513;42.662;23.350;2023-03-31T08:13:50;6.53;;;3.40;;
16792;SDS011;8513;42.662;23.350;2023-03-31T08:16:16;4.50;;;3.13;;
16792;SDS011;8513;42.662;23.350;2023-03-31T08:18:42;6.32;;;3.25;;
16792;SDS011;8513;42.662;23.350;2023-03-31T08:21:07;6.20;;;3.58;;
16792;SDS011;8513;42.662;23.350;2023-03-31T08:23:36;7.88;;;3.10;;
16792;SDS011;8513;42.662;23.350;2023-03-31T08:26:11;5.78;;;3.35;;
16792;SDS011;8513;42.662;23.350;2023-03-31T08:28:44;5.35;;;2.70;;
16792;SDS011;8513;42.662;23.350;2023-03-31T08:31:10;5.57;;;3.20;;
16792;SDS011;8513;42.662;23.350;2023-03-31T08:33:36;6.60;;;2.90;;
16792;SDS011;8513;42.662;23.350;2023-03-31T08:36:06;5.70;;;2.75;;
16792;SDS011;8513;42.662;23.350;2023-03-31T08:38:34;4.07;;;2.75;;
16792;SDS011;8513;42.662;23.350;2023-03-31T08:41:06;5.45;;;2.47;;
16792;SDS011;8513;42.662;23.350;2023-03-31T08:43:42;6.60;;;2.90;;
16792;SDS011;8513;42.662;23.350;2023-03-31T08:46:10;3.85;;;2.53;;
16792;SDS011;8513;42.662;23.350;2023-03-31T08:48:41;4.63;;;2.20;;
16792;SDS011;8513;42.662;23.350;2023-03-31T08:51:20;4.68;;;2.20;;
16792;SDS011;8513;42.662;23.350;2023-03-31T08:53:58;4.10;;;2.60;;
16792;SDS011;8513;42.662;23.350;2023-03-31T08:56:27;5.88;;;2.60;;
16792;SDS011;8513;42.662;23.350;2023-03-31T08:58:55;7.45;;;2.28;;
16792;SDS011;8513;42.662;23.350;2023-03-31T09:07:08;3.63;;;2.00;;
16792;SDS011;8513;42.662;23.350;2023-03-31T09:12:13;5.55;;;2.20;;
16792;SDS011;8513;42.662;23.350;2023-03-31T09:22:31;3.80;;;2.10;;
16792;SDS011;8513;42.662;23.350;2023-03-31T09:27:30;6.80;;;2.30;;
16792;SDS011;8513;42.662;23.350;2023-03-31T09:30:09;4.20;;;1.83;;
16792;SDS011;8513;42.662;23.350;2023-03-31T09:32:36;3.78;;;2.30;;
16792;SDS011;8513;42.662;23.350;2023-03-31T09:37:49;3.80;;;2.35;;
16792;SDS011;8513;42.662;23.350;2023-03-31T09:40:16;5.80;;;2.28;;
16792;SDS011;8513;42.662;23.350;2023-03-31T09:42:45;4.60;;;2.22;;
16792;SDS011;8513;42.662;23.350;2023-03-31T09:45:16;6.53;;;2.40;;
16792;SDS011;8513;42.662;23.350;2023-03-31T09:47:44;5.32;;;1.80;;
16792;SDS011;8513;42.662;23.350;2023-03-31T09:50:16;7.45;;;2.38;;
16792;SDS011;8513;42.662;23.350;2023-03-31T09:52:43;5.15;;;1.70;;
16792;SDS011;8513;42.662;23.350;2023-03-31T09:55:20;4.05;;;1.80;;
16792;SDS011;8513;42.662;23.350;2023-03-31T09:57:49;4.57;;;2.13;;
16792;SDS011;8513;42.662;23.350;2023-03-31T10:00:19;4.25;;;1.83;;
16792;SDS011;8513;42.662;23.350;2023-03-31T10:02:47;4.95;;;2.13;;
16792;SDS011;8513;42.662;23.350;2023-03-31T10:10:50;3.33;;;1.85;;
16792;SDS011;8513;42.662;23.350;2023-03-31T10:13:19;5.07;;;2.40;;
16792;SDS011;8513;42.662;23.350;2023-03-31T10:15:50;3.92;;;1.88;;
16792;SDS011;8513;42.662;23.350;2023-03-31T10:18:18;4.32;;;1.98;;
16792;SDS011;8513;42.662;23.350;2023-03-31T10:20:51;5.60;;;2.00;;
16792;SDS011;8513;42.662;23.350;2023-03-31T10:23:23;8.50;;;2.00;;
16792;SDS011;8513;42.662;23.350;2023-03-31T10:25:53;4.22;;;1.95;;
16792;SDS011;8513;42.662;23.350;2023-03-31T10:28:19;5.15;;;1.92;;
16792;SDS011;8513;42.662;23.350;2023-03-31T10:30:52;8.10;;;2.47;;
16792;SDS011;8513;42.662;23.350;2023-03-31T10:33:23;5.68;;;2.05;;
16792;SDS011;8513;42.662;23.350;2023-03-31T10:35:54;4.25;;;2.05;;
16792;SDS011;8513;42.662;23.350;2023-03-31T10:38:33;4.60;;;1.90;;
16792;SDS011;8513;42.662;23.350;2023-03-31T10:41:01;4.43;;;2.10;;
16792;SDS011;8513;42.662;23.350;2023-03-31T10:43:28;4.95;;;2.00;;
16792;SDS011;8513;42.662;23.350;2023-03-31T10:45:59;3.10;;;1.88;;
16792;SDS011;8513;42.662;23.350;2023-03-31T10:51:00;2.67;;;1.70;;
16792;SDS011;8513;42.662;23.350;2023-03-31T10:53:54;5.53;;;2.17;;
16792;SDS011;8513;42.662;23.350;2023-03-31T11:06:31;4.10;;;1.90;;
16792;SDS011;8513;42.662;23.350;2023-03-31T11:12:11;3.17;;;1.83;;
16792;SDS011;8513;42.662;23.350;2023-03-31T11:20:25;4.18;;;2.13;;
16792;SDS011;8513;42.662;23.350;2023-03-31T11:26:02;5.05;;;1.85;;
16792;SDS011;8513;42.662;23.350;2023-03-31T11:28:37;5.05;;;1.70;;
16792;SDS011;8513;42.662;23.350;2023-03-31T11:41:52;4.93;;;2.17;;
16792;SDS011;8513;42.662;23.350;2023-03-31T11:44:22;4.55;;;1.98;;
16792;SDS011;8513;42.662;23.350;2023-03-31T11:46:53;4.40;;;2.50;;
16792;SDS011;8513;42.662;23.350;2023-03-31T11:49:26;7.00;;;2.55;;
16792;SDS011;8513;42.662;23.350;2023-03-31T11:52:20;6.60;;;2.45;;
16792;SDS011;8513;42.662;23.350;2023-03-31T11:57:44;6.05;;;2.85;;
16792;SDS011;8513;42.662;23.350;2023-03-31T12:00:24;4.00;;;1.90;;
16792;SDS011;8513;42.662;23.350;2023-03-31T12:05:44;6.18;;;2.88;;
16792;SDS011;8513;42.662;23.350;2023-03-31T12:08:15;3.60;;;1.90;;
16792;SDS011;8513;42.662;23.350;2023-03-31T12:10:49;5.38;;;2.60;;
16792;SDS011;8513;42.662;23.350;2023-03-31T12:13:27;6.35;;;2.58;;
16792;SDS011;8513;42.662;23.350;2023-03-31T12:19:05;6.78;;;2.20;;
16792;SDS011;8513;42.662;23.350;2023-03-31T12:22:01;3.75;;;1.98;;
16792;SDS011;8513;42.662;23.350;2023-03-31T12:24:35;2.95;;;1.83;;
16792;SDS011;8513;42.662;23.350;2023-03-31T12:27:04;6.35;;;3.08;;
16792;SDS011;8513;42.662;23.350;2023-03-31T12:32:04;3.60;;;2.03;;
16792;SDS011;8513;42.662;23.350;2023-03-31T12:34:37;7.60;;;2.47;;
16792;SDS011;8513;42.662;23.350;2023-03-31T12:40:06;5.88;;;1.98;;
16792;SDS011;8513;42.662;23.350;2023-03-31T12:51:22;4.55;;;2.20;;
16792;SDS011;8513;42.662;23.350;2023-03-31T12:54:18;2.88;;;2.10;;
16792;SDS011;8513;42.662;23.350;2023-03-31T12:59:43;5.28;;;2.58;;
16792;SDS011;8513;42.662;23.350;2023-03-31T13:04:43;6.38;;;2.13;;
16792;SDS011;8513;42.662;23.350;2023-03-31T13:09:49;4.18;;;2.03;;
16792;SDS011;8513;42.662;23.350;2023-03-31T13:12:21;4.20;;;2.20;;
16792;SDS011;8513;42.662;23.350;2023-03-31T13:14:48;7.30;;;2.20;;
16792;SDS011;8513;42.662;23.350;2023-03-31T13:17:25;6.65;;;2.25;;
16792;SDS011;8513;42.662;23.350;2023-03-31T13:22:47;4.45;;;2.90;;
16792;SDS011;8513;42.662;23.350;2023-03-31T13:27:54;5.90;;;2.65;;
16792;SDS011;8513;42.662;23.350;2023-03-31T13:41:55;4.55;;;2.42;;
16792;SDS011;8513;42.662;23.350;2023-03-31T13:44:28;5.93;;;2.35;;
16792;SDS011;8513;42.662;23.350;2023-03-31T13:53:02;5.05;;;3.00;;
16792;SDS011;8513;42.662;23.350;2023-03-31T13:58:19;3.50;;;2.35;;
16792;SDS011;8513;42.662;23.350;2023-03-31T14:04:03;7.13;;;3.00;;
16792;SDS011;8513;42.662;23.350;2023-03-31T14:06:43;6.80;;;3.85;;
16792;SDS011;8513;42.662;23.350;2023-03-31T14:09:24;8.38;;;2.72;;
16792;SDS011;8513;42.662;23.350;2023-03-31T14:11:53;4.25;;;2.78;;
16792;SDS011;8513;42.662;23.350;2023-03-31T14:14:20;5.43;;;2.30;;
16792;SDS011;8513;42.662;23.350;2023-03-31T14:16:49;6.50;;;2.78;;
16792;SDS011;8513;42.662;23.350;2023-03-31T14:33:08;4.65;;;2.90;;
16792;SDS011;8513;42.662;23.350;2023-03-31T14:38:28;3.30;;;3.00;;
16792;SDS011;8513;42.662;23.350;2023-03-31T14:40:54;5.45;;;3.03;;
16792;SDS011;8513;42.662;23.350;2023-03-31T14:43:34;4.47;;;2.95;;
16792;SDS011;8513;42.662;23.350;2023-03-31T14:46:06;3.33;;;3.03;;
16792;SDS011;8513;42.662;23.350;2023-03-31T14:48:33;4.25;;;2.92;;
16792;SDS011;8513;42.662;23.350;2023-03-31T14:51:07;5.18;;;3.30;;
16792;SDS011;8513;42.662;23.350;2023-03-31T14:53:34;5.90;;;2.97;;
16792;SDS011;8513;42.662;23.350;2023-03-31T14:56:08;3.25;;;2.78;;
16792;SDS011;8513;42.662;23.350;2023-03-31T14:58:43;4.40;;;2.78;;
16792;SDS011;8513;42.662;23.350;2023-03-31T15:01:17;4.10;;;2.75;;
16792;SDS011;8513;42.662;23.350;2023-03-31T15:03:47;4.40;;;3.08;;
16792;SDS011;8513;42.662;23.350;2023-03-31T15:06:15;5.20;;;2.75;;
16792;SDS011;8513;42.662;23.350;2023-03-31T15:08:40;3.97;;;2.70;;
16792;SDS011;8513;42.662;23.350;2023-03-31T15:11:08;4.70;;;2.50;;
16792;SDS011;8513;42.662;23.350;2023-03-31T15:13:44;3.53;;;2.38;;
16792;SDS011;8513;42.662;23.350;2023-03-31T15:16:29;6.90;;;2.92;;
16792;SDS011;8513;42.662;23.350;2023-03-31T15:21:39;3.80;;;2.95;;
16792;SDS011;8513;42.662;23.350;2023-03-31T15:24:05;6.55;;;2.85;;
16792;SDS011;8513;42.662;23.350;2023-03-31T15:26:36;4.97;;;3.20;;
16792;SDS011;8513;42.662;23.350;2023-03-31T15:31:55;5.15;;;2.75;;
16792;SDS011;8513;42.662;23.350;2023-03-31T15:34:26;8.40;;;4.07;;
16792;SDS011;8513;42.662;23.350;2023-03-31T15:36:57;10.82;;;3.22;;
16792;SDS011;8513;42.662;23.350;2023-03-31T15:39:24;3.92;;;2.70;;
16792;SDS011;8513;42.662;23.350;2023-03-31T15:41:52;6.50;;;3.05;;
16792;SDS011;8513;42.662;23.350;2023-03-31T15:44:29;4.75;;;2.75;;
16792;SDS011;8513;42.662;23.350;2023-03-31T15:47:04;5.82;;;2.72;;
16792;SDS011;8513;42.662;23.350;2023-03-31T15:49:37;5.75;;;3.10;;
16792;SDS011;8513;42.662;23.350;2023-03-31T15:52:25;5.75;;;3.33;;
16792;SDS011;8513;42.662;23.350;2023-03-31T15:54:53;7.45;;;3.60;;
16792;SDS011;8513;42.662;23.350;2023-03-31T15:57:18;5.82;;;3.42;;
16792;SDS011;8513;42.662;23.350;2023-03-31T15:59:49;4.72;;;3.10;;
16792;SDS011;8513;42.662;23.350;2023-03-31T16:02:20;6.65;;;3.20;;
16792;SDS011;8513;42.662;23.350;2023-03-31T16:04:49;4.63;;;2.70;;
16792;SDS011;8513;42.662;23.350;2023-03-31T16:07:28;5.35;;;3.08;;
16792;SDS011;8513;42.662;23.350;2023-03-31T16:10:07;8.13;;;3.05;;
16792;SDS011;8513;42.662;23.350;2023-03-31T16:13:02;4.97;;;2.92;;
16792;SDS011;8513;42.662;23.350;2023-03-31T16:15:34;5.78;;;3.13;;
16792;SDS011;8513;42.662;23.350;2023-03-31T16:18:14;6.30;;;2.88;;
16792;SDS011;8513;42.662;23.350;2023-03-31T16:20:52;3.65;;;2.63;;
16792;SDS011;8513;42.662;23.350;2023-03-31T16:23:25;6.43;;;2.92;;
16792;SDS011;8513;42.662;23.350;2023-03-31T16:25:52;7.18;;;2.78;;
16792;SDS011;8513;42.662;23.350;2023-03-31T16:28:20;6.95;;;2.83;;
16792;SDS011;8513;42.662;23.350;2023-03-31T16:30:48;5.35;;;2.40;;
16792;SDS011;8513;42.662;23.350;2023-03-31T16:33:15;4.20;;;2.30;;
16792;SDS011;8513;42.662;23.350;2023-03-31T16:35:46;6.10;;;2.50;;
16792;SDS011;8513;42.662;23.350;2023-03-31T16:38:15;4.28;;;2.85;;
16792;SDS011;8513;42.662;23.350;2023-03-31T16:40:42;6.00;;;2.75;;
16792;SDS011;8513;42.662;23.350;2023-03-31T16:43:10;7.28;;;3.00;;
16792;SDS011;8513;42.662;23.350;2023-03-31T16:45:42;8.52;;;3.80;;
16792;SDS011;8513;42.662;23.350;2023-03-31T16:48:10;7.40;;;2.70;;
16792;SDS011;8513;42.662;23.350;2023-03-31T16:50:36;9.85;;;2.92;;
16792;SDS011;8513;42.662;23.350;2023-03-31T16:53:02;8.32;;;3.22;;
16792;SDS011;8513;42.662;23.350;2023-03-31T16:55:29;13.73;;;3.70;;
16792;SDS011;8513;42.662;23.350;2023-03-31T16:57:58;10.38;;;3.90;;
16792;SDS011;8513;42.662;23.350;2023-03-31T17:00:27;10.63;;;3.78;;
16792;SDS011;8513;42.662;23.350;2023-03-31T17:02:58;8.85;;;4.22;;
16792;SDS011;8513;42.662;23.350;2023-03-31T17:05:25;12.48;;;5.10;;
16792;SDS011;8513;42.662;23.350;2023-03-31T17:07:51;9.32;;;5.35;;
16792;SDS011;8513;42.662;23.350;2023-03-31T17:10:17;12.57;;;5.45;;
16792;SDS011;8513;42.662;23.350;2023-03-31T17:12:43;9.13;;;5.45;;
16792;SDS011;8513;42.662;23.350;2023-03-31T17:15:08;13.85;;;6.53;;
16792;SDS011;8513;42.662;23.350;2023-03-31T17:17:34;13.27;;;6.47;;
16792;SDS011;8513;42.662;23.350;2023-03-31T17:20:00;9.95;;;6.18;;
16792;SDS011;8513;42.662;23.350;2023-03-31T17:22:26;16.38;;;6.75;;
16792;SDS011;8513;42.662;23.350;2023-03-31T17:24:52;16.25;;;6.97;;
16792;SDS011;8513;42.662;23.350;2023-03-31T17:27:22;20.15;;;7.05;;
16792;SDS011;8513;42.662;23.350;2023-03-31T17:29:48;12.73;;;6.65;;
16792;SDS011;8513;42.662;23.350;2023-03-31T17:32:13;17.33;;;6.93;;
16792;SDS011;8513;42.662;23.350;2023-03-31T17:34:40;18.15;;;6.82;;
16792;SDS011;8513;42.662;23.350;2023-03-31T17:37:06;17.02;;;7.22;;
16792;SDS011;8513;42.662;23.350;2023-03-31T17:39:32;13.85;;;6.47;;
16792;SDS011;8513;42.662;23.350;2023-03-31T17:41:57;10.10;;;5.53;;
16792;SDS011;8513;42.662;23.350;2023-03-31T17:44:23;11.60;;;4.80;;
16792;SDS011;8513;42.662;23.350;2023-03-31T17:46:49;7.90;;;5.45;;
16792;SDS011;8513;42.662;23.350;2023-03-31T17:49:14;11.10;;;5.75;;
16792;SDS011;8513;42.662;23.350;2023-03-31T17:51:41;8.05;;;4.88;;
16792;SDS011;8513;42.662;23.350;2023-03-31T17:54:07;11.82;;;5.10;;
16792;SDS011;8513;42.662;23.350;2023-03-31T17:56:33;10.20;;;5.13;;
16792;SDS011;8513;42.662;23.350;2023-03-31T17:58:58;12.13;;;5.70;;
16792;SDS011;8513;42.662;23.350;2023-03-31T18:01:24;11.98;;;5.45;;
16792;SDS011;8513;42.662;23.350;2023-03-31T18:03:50;11.02;;;5.95;;
16792;SDS011;8513;42.662;23.350;2023-03-31T18:06:15;13.27;;;6.88;;
16792;SDS011;8513;42.662;23.350;2023-03-31T18:08:41;14.30;;;7.13;;
16792;SDS011;8513;42.662;23.350;2023-03-31T18:11:07;10.57;;;6.18;;